Time;durP1;ratioP1;P1;durP2;ratioP2;P2;SDS_P1;SDS_P2;PMS_P1;PMS_P2;Temp;Humidity;BMP_temperature;BMP_pressure;BME280_temperature;BME280_humidity;BME280_pressure;Samples;Min_cycle;Max_cycle;Signal;HPM_P1;HPM_P2
2023/06/01 00:00:41;;;;;;;17.17;11.60;;;;;;;11.26;100.00;102394.56;5072338;28;20441;-57
2023/06/01 00:03:06;;;;;;;14.48;11.55;;;;;;;11.32;100.00;102395.38;5072434;28;20036;-58
2023/06/01 00:05:31;;;;;;;16.42;11.77;;;;;;;11.30;100.00;102393.63;5072081;28;20036;-58
2023/06/01 00:07:57;;;;;;;20.48;12.48;;;;;;;11.35;100.00;102395.34;5072183;28;20033;-57
2023/06/01 00:10:22;;;;;;;15.23;10.57;;;;;;;10.96;100.00;102334.25;5072060;28;20395;-58
2023/06/01 00:12:47;;;;;;;13.70;10.80;;;;;;;10.95;100.00;102315.81;5071958;28;20040;-59
2023/06/01 00:15:13;;;;;;;17.55;11.23;;;;;;;11.34;100.00;102380.41;5054319;28;20082;-59
2023/06/01 00:17:38;;;;;;;14.60;10.70;;;;;;;10.61;100.00;102271.41;5054179;28;20029;-59
2023/06/01 00:20:08;;;;;;;14.55;10.43;;;;;;;11.33;100.00;102403.25;5072038;28;20132;-58
2023/06/01 00:22:34;;;;;;;16.08;10.45;;;;;;;10.97;100.00;102325.50;5070506;28;20056;-58
2023/06/01 00:25:00;;;;;;;14.55;9.80;;;;;;;11.29;100.00;102375.22;5072352;28;20044;-58
2023/06/01 00:27:25;;;;;;;14.38;10.02;;;;;;;11.00;100.00;102335.13;5072256;28;20024;-58
2023/06/01 00:29:50;;;;;;;14.00;8.73;;;;;;;11.30;100.00;102387.47;5072014;28;20029;-58
2023/06/01 00:32:16;;;;;;;14.48;9.07;;;;;;;11.28;100.00;102376.09;5054142;28;20025;-58
2023/06/01 00:34:41;;;;;;;13.63;9.20;;;;;;;11.39;100.00;102387.38;5072127;28;20032;-58
2023/06/01 00:37:06;;;;;;;12.68;8.57;;;;;;;10.67;100.00;102262.56;5071958;28;20547;-58
2023/06/01 00:39:32;;;;;;;14.90;8.60;;;;;;;11.00;100.00;102320.19;5053575;28;20376;-58
2023/06/01 00:41:57;;;;;;;12.63;9.30;;;;;;;11.38;100.00;102390.94;5071798;28;20043;-57
2023/06/01 00:44:22;;;;;;;12.38;8.82;;;;;;;10.86;100.00;102298.34;5071824;28;20033;-57
2023/06/01 00:46:50;;;;;;;11.73;8.98;;;;;;;11.30;100.00;102376.94;5070610;28;20135;-58
2023/06/01 00:49:15;;;;;;;13.43;8.55;;;;;;;11.38;100.00;102384.78;5070401;28;20033;-60
2023/06/01 00:51:40;;;;;;;13.23;8.80;;;;;;;11.26;100.00;102360.31;5072155;28;20115;-57
2023/06/01 00:54:06;;;;;;;14.45;9.30;;;;;;;10.95;100.00;102315.81;5071708;28;20041;-59
2023/06/01 00:56:32;;;;;;;18.23;8.95;;;;;;;11.35;100.00;102382.19;5071958;28;20044;-58
2023/06/01 00:58:59;;;;;;;13.15;8.57;;;;;;;10.81;100.00;102278.22;5071455;28;20056;-58
2023/06/01 01:01:25;;;;;;;16.30;9.25;;;;;;;11.38;100.00;102382.16;5072066;28;20029;-58
2023/06/01 01:03:57;;;;;;;13.93;9.05;;;;;;;10.97;100.00;102328.13;5075790;28;20035;-58
2023/06/01 01:06:22;;;;;;;13.68;7.90;;;;;;;11.32;100.00;102396.25;5058375;28;20034;-58
2023/06/01 01:09:07;;;;;;;12.52;8.65;;;;;;;11.28;100.00;102394.53;5075416;28;20478;-58
2023/06/01 01:11:32;;;;;;;10.57;8.77;;;;;;;11.29;100.00;102391.03;5074471;28;20021;-58
2023/06/01 01:14:07;;;;;;;14.73;9.57;;;;;;;10.92;100.00;102323.75;5074192;28;20621;-59
2023/06/01 01:16:46;;;;;;;13.55;9.52;;;;;;;11.27;100.00;102384.88;5075063;28;20060;-57
2023/06/01 01:19:27;;;;;;;16.90;9.85;;;;;;;11.35;100.00;102390.09;5075859;28;20060;-57
2023/06/01 01:22:31;;;;;;;15.30;10.82;;;;;;;11.36;100.00;102378.63;5075405;28;20052;-58
2023/06/01 01:25:22;;;;;;;15.93;9.80;;;;;;;11.30;100.00;102379.56;5051072;28;20086;-59
2023/06/01 01:28:08;;;;;;;;;;;;;;;11.32;100.00;102376.94;5057937;28;20110;-58
2023/06/01 01:30:37;;;;;;;16.35;10.43;;;;;;;10.94;100.00;102311.47;5057375;28;19919;-58
2023/06/01 01:33:03;;;;;;;14.60;10.63;;;;;;;10.91;100.00;102296.56;5075462;28;20039;-58
2023/06/01 01:35:29;;;;;;;13.43;9.90;;;;;;;11.41;100.00;102376.84;5073792;28;20396;-59
2023/06/01 01:37:55;;;;;;;13.63;10.40;;;;;;;11.35;100.00;102375.16;5073547;28;20036;-59
2023/06/01 01:40:21;;;;;;;14.25;11.00;;;;;;;11.32;100.00;102376.03;5073980;28;20047;-60
2023/06/01 01:42:47;;;;;;;13.57;11.00;;;;;;;11.32;100.00;102370.75;5074862;28;20463;-58
2023/06/01 01:45:14;;;;;;;12.27;10.73;;;;;;;11.34;100.00;102377.78;5075005;28;20037;-59
2023/06/01 01:48:09;;;;;;;12.65;10.27;;;;;;;11.40;100.00;102383.88;5073581;28;20036;-59
2023/06/01 01:50:42;;;;;;;15.95;10.48;;;;;;;11.01;100.00;102303.47;5066026;28;20040;-59
2023/06/01 01:53:08;;;;;;;13.98;10.48;;;;;;;11.41;100.00;102388.25;5074604;28;20047;-60
2023/06/01 01:55:34;;;;;;;15.52;9.60;;;;;;;11.43;100.00;102386.47;5073973;28;20060;-59
2023/06/01 01:58:00;;;;;;;15.88;11.07;;;;;;;10.97;100.00;102317.59;5073254;28;20087;-59
2023/06/01 02:00:25;;;;;;;13.00;10.15;;;;;;;11.35;100.00;102380.41;5073626;28;20086;-59
2023/06/01 02:02:51;;;;;;;19.95;11.43;;;;;;;11.38;100.00;102377.75;5074230;28;20064;-59
2023/06/01 02:05:16;;;;;;;13.73;10.02;;;;;;;11.28;100.00;102368.19;5075213;28;20356;-59
2023/06/01 02:07:41;;;;;;;16.15;10.07;;;;;;;11.31;100.00;102376.06;5074729;28;20453;-59
2023/06/01 02:10:07;;;;;;;17.45;10.55;;;;;;;11.28;100.00;102374.34;5074332;28;20040;-59
2023/06/01 02:12:32;;;;;;;16.73;10.05;;;;;;;11.32;100.00;102369.91;5074433;28;20085;-59
2023/06/01 02:14:58;;;;;;;15.48;10.15;;;;;;;11.28;100.00;102370.81;5055615;28;20048;-59
2023/06/01 02:17:25;;;;;;;15.13;10.00;;;;;;;11.30;100.00;102369.91;5073933;28;20040;-59
2023/06/01 02:19:50;;;;;;;14.35;8.88;;;;;;;10.76;100.00;102301.09;5074316;28;20056;-59
2023/06/01 02:22:15;;;;;;;14.82;9.63;;;;;;;11.22;100.00;102366.50;5056180;28;20181;-60
2023/06/01 02:24:41;;;;;;;16.95;9.70;;;;;;;11.19;100.00;102370.91;5056159;28;20547;-59
2023/06/01 02:27:06;;;;;;;13.77;9.35;;;;;;;11.24;100.00;102369.97;5074181;28;20105;-60
2023/06/01 02:29:32;;;;;;;12.50;9.63;;;;;;;10.74;100.00;102293.22;5056067;28;20264;-59
2023/06/01 02:31:57;;;;;;;12.85;9.07;;;;;;;10.65;100.00;102265.19;5073515;28;20036;-59
2023/06/01 02:34:22;;;;;;;15.20;8.88;;;;;;;10.72;100.00;102300.25;5074143;28;20035;-59
2023/06/01 02:36:48;;;;;;;17.52;9.38;;;;;;;10.62;100.00;102286.31;5073638;28;20368;-59
2023/06/01 02:39:14;;;;;;;14.85;9.43;;;;;;;10.49;100.00;102266.25;5056067;28;20033;-59
2023/06/01 02:41:39;;;;;;;11.07;8.15;;;;;;;11.09;100.00;102350.84;5073930;28;20044;-59
2023/06/01 02:44:04;;;;;;;13.48;9.57;;;;;;;11.08;100.00;102354.34;5073868;28;20093;-59
2023/06/01 02:46:30;;;;;;;15.63;10.05;;;;;;;11.07;100.00;102358.75;5073384;28;20064;-59
2023/06/01 02:48:55;;;;;;;11.02;9.20;;;;;;;11.08;100.00;102362.25;5073935;28;20036;-59
2023/06/01 02:51:20;;;;;;;14.73;8.80;;;;;;;10.73;100.00;102295.00;5073689;28;20517;-59
2023/06/01 02:53:46;;;;;;;12.88;8.98;;;;;;;10.72;100.00;102287.97;5073928;28;20082;-59
2023/06/01 02:56:12;;;;;;;11.80;8.75;;;;;;;11.11;100.00;102359.59;5073365;28;20040;-59
2023/06/01 02:58:37;;;;;;;12.32;9.60;;;;;;;10.70;100.00;102295.03;5073507;28;20101;-59
2023/06/01 03:01:03;;;;;;;12.95;9.68;;;;;;;11.02;100.00;102357.03;5072907;28;20487;-60
2023/06/01 03:03:28;;;;;;;16.75;9.40;;;;;;;10.56;100.00;102286.38;5071892;28;20047;-58
2023/06/01 03:05:55;;;;;;;12.88;9.43;;;;;;;11.05;100.00;102357.88;5073543;28;20498;-57
2023/06/01 03:08:21;;;;;;;11.40;9.20;;;;;;;11.00;100.00;102357.06;5073446;28;20588;-59
2023/06/01 03:10:46;;;;;;;13.13;9.27;;;;;;;10.68;100.00;102293.31;5073472;28;20035;-59
2023/06/01 03:13:12;;;;;;;13.88;9.02;;;;;;;10.51;100.00;102268.84;5073134;28;20028;-58
2023/06/01 03:15:37;;;;;;;14.88;9.60;;;;;;;11.05;100.00;102368.44;5073206;28;20098;-57
2023/06/01 03:18:06;;;;;;;12.48;9.77;;;;;;;10.98;100.00;102355.31;5072885;28;20513;-58
2023/06/01 03:20:32;;;;;;;12.23;9.85;;;;;;;11.06;100.00;102358.78;5073304;28;20037;-58
2023/06/01 03:22:58;;;;;;;12.65;9.45;;;;;;;11.07;100.00;102371.03;5073079;28;20372;-59
2023/06/01 03:25:24;;;;;;;13.10;8.55;;;;;;;11.04;100.00;102360.53;5072775;28;20062;-59
2023/06/01 03:27:50;;;;;;;13.25;8.88;;;;;;;11.05;100.00;102364.91;5073100;28;20116;-59
2023/06/01 03:30:15;;;;;;;14.10;8.77;;;;;;;11.03;100.00;102364.06;5072882;28;20455;-58
2023/06/01 03:32:42;;;;;;;10.60;8.07;;;;;;;10.94;100.00;102349.22;5072947;28;20115;-57
2023/06/01 03:35:08;;;;;;;10.50;8.23;;;;;;;10.62;100.00;102298.63;5071589;28;20047;-58
2023/06/01 03:37:34;;;;;;;10.95;8.10;;;;;;;10.64;100.00;102291.56;5054995;28;20071;-59
2023/06/01 03:40:01;;;;;;;12.80;7.95;;;;;;;11.08;100.00;102364.88;5055000;28;20074;-58
2023/06/01 03:42:26;;;;;;;11.02;8.10;;;;;;;11.07;100.00;102364.00;5072863;28;20119;-59
2023/06/01 03:44:52;;;;;;;16.50;8.02;;;;;;;10.54;100.00;102289.91;5072477;28;20128;-58
2023/06/01 03:47:17;;;;;;;15.70;7.53;;;;;;;10.70;100.00;102318.72;5054490;28;20487;-58
2023/06/01 03:49:42;;;;;;;14.88;9.13;;;;;;;11.04;100.00;102353.50;5038173;28;20157;-59
2023/06/01 03:52:08;;;;;;;15.13;8.88;;;;;;;11.13;100.00;102368.34;5072416;28;20032;-59
2023/06/01 03:54:34;;;;;;;10.63;8.82;;;;;;;10.65;100.00;102281.00;5072448;28;20369;-59
2023/06/01 03:57:00;;;;;;;14.18;8.93;;;;;;;11.11;100.00;102352.56;5054460;28;20040;-58
2023/06/01 03:59:25;;;;;;;13.95;8.55;;;;;;;10.74;100.00;102304.63;5072047;28;20048;-57
2023/06/01 04:01:51;;;;;;;15.48;8.57;;;;;;;11.13;100.00;102361.31;5083886;28;20055;-58
2023/06/01 04:04:17;;;;;;;13.05;8.35;;;;;;;10.78;100.00;102308.09;5074361;28;20035;-59
2023/06/01 04:06:45;;;;;;;15.52;9.15;;;;;;;10.67;100.00;102294.19;5059043;28;20032;-58
2023/06/01 04:09:11;;;;;;;10.38;8.32;;;;;;;11.15;100.00;102380.59;5092400;28;20024;-58
2023/06/01 04:11:39;;;;;;;17.00;9.25;;;;;;;10.79;100.00;102294.06;5092519;28;20114;-58
2023/06/01 04:14:05;;;;;;;14.57;8.80;;;;;;;11.21;100.00;102369.13;5092397;28;20395;-58
2023/06/01 04:16:30;;;;;;;14.38;9.05;;;;;;;11.27;100.00;102366.41;5072663;28;20044;-58
2023/06/01 04:18:56;;;;;;;15.27;9.75;;;;;;;11.30;100.00;102369.03;5077031;28;20083;-58
2023/06/01 04:21:21;;;;;;;12.93;8.85;;;;;;;11.21;100.00;102382.31;5092467;28;20042;-58
2023/06/01 04:23:47;;;;;;;12.23;8.32;;;;;;;10.62;100.00;102294.19;5091289;28;20046;-58
2023/06/01 04:26:12;;;;;;;13.80;8.38;;;;;;;11.10;100.00;102371.00;5092133;28;20489;-58
2023/06/01 04:28:43;;;;;;;12.73;8.52;;;;;;;10.88;100.00;102337.88;5092080;28;20032;-58
2023/06/01 04:31:16;;;;;;;10.25;8.10;;;;;;;11.12;100.00;102369.25;5090794;28;20468;-59
2023/06/01 04:33:44;;;;;;;10.70;8.48;;;;;;;11.06;100.00;102351.72;5072111;28;20033;-58
2023/06/01 04:36:13;;;;;;;11.90;8.32;;;;;;;10.67;100.00;102300.31;5086296;28;20097;-58
2023/06/01 04:38:42;;;;;;;18.42;9.57;;;;;;;10.78;100.00;102326.53;5078320;28;20112;-58
2023/06/01 04:41:10;;;;;;;12.80;8.00;;;;;;;11.09;100.00;102351.69;5095991;28;20482;-58
2023/06/01 04:43:39;;;;;;;10.52;8.63;;;;;;;11.23;100.00;102373.53;5094251;28;20071;-58
2023/06/01 04:46:05;;;;;;;10.23;7.72;;;;;;;11.31;100.00;102368.16;5094837;28;20391;-58
2023/06/01 04:48:31;;;;;;;11.10;8.93;;;;;;;11.41;100.00;102371.56;5096594;28;20036;-58
2023/06/01 04:50:58;;;;;;;13.68;9.15;;;;;;;10.97;100.00;102303.53;5095821;28;20502;-58
2023/06/01 04:53:24;;;;;;;12.43;8.50;;;;;;;11.46;100.00;102380.28;5076921;28;20039;-58
2023/06/01 04:55:50;;;;;;;11.60;8.65;;;;;;;11.42;100.00;102358.34;5095960;28;20371;-58
2023/06/01 04:58:15;;;;;;;13.07;9.13;;;;;;;11.02;100.00;102309.63;5095755;28;20520;-58
2023/06/01 05:00:41;;;;;;;14.50;9.70;;;;;;;11.51;100.00;102378.47;5077934;28;20127;-58
2023/06/01 05:03:06;;;;;;;15.68;9.95;;;;;;;11.45;100.00;102362.72;5096271;28;20042;-58
2023/06/01 05:05:31;;;;;;;17.40;9.05;;;;;;;11.61;100.00;102375.72;5077865;28;20075;-58
2023/06/01 05:07:57;;;;;;;12.77;8.63;;;;;;;11.32;100.00;102303.13;5095971;28;20032;-58
2023/06/01 05:10:22;;;;;;;13.75;8.80;;;;;;;11.39;100.00;102315.31;5095733;28;20471;-58
2023/06/01 05:12:47;;;;;;;16.20;9.23;;;;;;;11.70;100.00;102372.97;5095913;28;20032;-58
2023/06/01 05:15:13;;;;;;;13.68;9.02;;;;;;;11.74;100.00;102376.44;5095807;28;20086;-58
2023/06/01 05:17:39;;;;;;;15.52;8.85;;;;;;;11.74;100.00;102384.34;5094481;28;20036;-58
2023/06/01 05:20:05;;;;;;;15.18;9.10;;;;;;;11.34;100.00;102294.31;5095569;28;20441;-59
2023/06/01 05:22:31;;;;;;;12.88;9.30;;;;;;;11.50;100.00;102306.38;5095494;28;20024;-59
2023/06/01 05:24:57;;;;;;;13.70;8.75;;;;;;;11.88;100.00;102376.28;5095383;28;20061;-59
2023/06/01 05:27:22;;;;;;;15.38;9.38;;;;;;;12.00;100.00;102378.72;5095263;28;20040;-58
2023/06/01 05:29:48;;;;;;;13.35;9.88;;;;;;;11.84;100.00;102355.22;5095271;28;20043;-58
2023/06/01 05:32:13;;;;;;;13.20;9.48;;;;;;;11.93;100.00;102348.94;5095442;28;20040;-60
2023/06/01 05:34:38;;;;;;;14.10;9.35;;;;;;;11.95;100.00;102359.47;5060629;28;20035;-58
2023/06/01 05:37:04;;;;;;;16.25;9.52;;;;;;;12.13;100.00;102367.13;5077085;28;20047;-58
2023/06/01 05:39:30;;;;;;;13.40;9.90;;;;;;;11.71;100.00;102327.25;5077116;28;20043;-58
2023/06/01 05:41:55;;;;;;;16.00;10.48;;;;;;;11.96;100.00;102379.69;5095748;28;20395;-59
2023/06/01 05:44:21;;;;;;;17.35;11.23;;;;;;;11.53;100.00;102298.44;5094094;28;20028;-59
2023/06/01 05:46:46;;;;;;;15.45;10.73;;;;;;;12.20;100.00;102382.00;5076974;28;20031;-58
2023/06/01 05:49:11;;;;;;;12.77;9.80;;;;;;;11.99;100.00;102395.47;5095069;28;20032;-58
2023/06/01 05:51:37;;;;;;;16.30;10.98;;;;;;;12.04;100.00;102383.09;5095115;28;20063;-59
2023/06/01 05:54:04;;;;;;;16.33;11.07;;;;;;;11.93;100.00;102371.81;5094820;28;20111;-57
2023/06/01 05:56:30;;;;;;;18.38;12.73;;;;;;;11.99;100.00;102390.19;5095019;28;20031;-59
2023/06/01 05:58:56;;;;;;;15.18;12.32;;;;;;;11.96;100.00;102367.38;5090144;28;20063;-59
2023/06/01 06:01:22;;;;;;;17.42;11.80;;;;;;;12.06;100.00;102368.97;5074766;28;20468;-59
2023/06/01 06:03:47;;;;;;;18.85;12.55;;;;;;;12.14;100.00;102387.34;5074578;28;20068;-59
2023/06/01 06:06:13;;;;;;;16.65;12.45;;;;;;;11.92;100.00;102328.72;5074502;28;20075;-59
2023/06/01 06:08:38;;;;;;;16.00;12.65;;;;;;;12.18;100.00;102383.75;5073274;28;20025;-59
2023/06/01 06:11:03;;;;;;;17.38;12.75;;;;;;;12.29;100.00;102384.47;5074419;28;20065;-58
2023/06/01 06:13:29;;;;;;;14.90;11.02;;;;;;;12.20;100.00;102371.44;5073948;28;20105;-58
2023/06/01 06:15:55;;;;;;;17.13;12.05;;;;;;;11.95;100.00;102323.38;5073126;28;20083;-59
2023/06/01 06:18:20;;;;;;;17.52;12.48;;;;;;;12.31;100.00;102375.66;5074268;28;20029;-58
2023/06/01 06:20:46;;;;;;;19.25;12.95;;;;;;;11.86;100.00;102315.59;5074309;28;20043;-58
2023/06/01 06:23:12;;;;;;;17.42;12.85;;;;;;;12.22;100.00;102377.53;5074053;28;20024;-58
2023/06/01 06:25:39;;;;;;;14.18;11.65;;;;;;;11.83;100.00;102297.19;5074536;28;20032;-59
2023/06/01 06:28:05;;;;;;;15.88;11.77;;;;;;;12.00;100.00;102304.84;5074461;28;20036;-59
2023/06/01 06:30:30;;;;;;;14.27;11.90;;;;;;;11.93;100.00;102304.06;5073930;28;20029;-58
2023/06/01 06:32:56;;;;;;;17.27;12.68;;;;;;;12.22;100.00;102352.03;5072693;28;20036;-58
2023/06/01 06:35:21;;;;;;;16.23;12.32;;;;;;;12.46;100.00;102352.53;5074045;28;20508;-58
2023/06/01 06:37:47;;;;;;;18.67;12.27;;;;;;;11.68;100.00;102255.16;5072466;28;20041;-58
2023/06/01 06:40:12;;;;;;;20.00;13.43;;;;;;;12.57;100.00;102369.94;5072601;28;20064;-59
2023/06/01 06:42:37;;;;;;;17.90;12.45;;;;;;;12.47;100.00;102370.97;5073133;28;20043;-59
2023/06/01 06:45:04;;;;;;;17.25;11.30;;;;;;;12.58;100.00;102395.44;5072973;28;20119;-59
2023/06/01 06:47:30;;;;;;;13.95;11.13;;;;;;;12.59;100.00;102397.22;5072421;28;20024;-59
2023/06/01 06:49:55;;;;;;;17.42;11.80;;;;;;;12.69;100.00;102395.28;5072456;28;20064;-59
2023/06/01 06:52:21;;;;;;;14.43;11.98;;;;;;;12.77;100.00;102396.91;5073600;28;20048;-59
2023/06/01 06:54:46;;;;;;;15.38;11.50;;;;;;;12.71;100.00;102360.03;5073481;28;20548;-59
2023/06/01 06:57:12;;;;;;;14.18;11.05;;;;;;;12.48;100.00;102327.84;5074087;28;20116;-58
2023/06/01 06:59:37;;;;;;;12.30;10.30;;;;;;;13.03;100.00;102400.88;5093287;28;20490;-59
2023/06/01 07:02:03;;;;;;;15.85;10.40;;;;;;;13.17;100.00;102393.59;5093692;28;20036;-58
2023/06/01 07:04:28;;;;;;;13.75;10.68;;;;;;;12.39;100.00;102314.78;5075576;28;20036;-59
2023/06/01 07:06:54;;;;;;;17.25;10.73;;;;;;;13.07;100.00;102414.03;5093314;28;20024;-58
2023/06/01 07:09:20;;;;;;;15.80;9.27;;;;;;;12.87;100.00;102416.13;5093592;28;20423;-58
2023/06/01 07:11:47;;;;;;;13.93;9.82;;;;;;;13.31;100.00;102405.66;5093752;28;20106;-58
2023/06/01 07:14:12;;;;;;;11.20;8.93;;;;;;;13.64;100.00;102398.84;5092246;28;20368;-58
2023/06/01 07:16:38;;;;;;;11.93;9.95;;;;;;;13.49;100.00;102415.00;5093102;28;20030;-60
2023/06/01 07:19:03;;;;;;;9.90;8.85;;;;;;;13.25;100.00;102331.72;5093260;28;20044;-59
2023/06/01 07:21:28;;;;;;;16.17;9.00;;;;;;;13.57;100.00;102388.41;5075016;28;20032;-59
2023/06/01 07:23:54;;;;;;;13.23;8.85;;;;;;;13.65;100.00;102326.50;5075141;28;20032;-60
2023/06/01 07:26:20;;;;;;;16.50;9.45;;;;;;;14.06;100.00;102363.53;5092950;28;20398;-60
2023/06/01 07:28:46;;;;;;;12.77;8.98;;;;;;;14.17;100.00;102415.34;5075416;28;20107;-60
2023/06/01 07:31:11;;;;;;;11.18;8.60;;;;;;;14.36;100.00;102422.03;5093327;28;20497;-59
2023/06/01 07:33:37;;;;;;;11.93;8.27;;;;;;;13.51;100.00;102339.16;5092973;28;20036;-60
2023/06/01 07:36:03;;;;;;;11.02;7.45;;;;;;;13.50;100.00;102347.97;5092942;28;20429;-60
2023/06/01 07:38:28;;;;;;;11.80;8.35;;;;;;;14.01;100.00;102435.97;5092858;28;20036;-59
2023/06/01 07:40:54;;;;;;;14.05;8.25;;;;;;;13.44;100.00;102371.91;5093003;28;20491;-59
2023/06/01 07:43:19;;;;;;;10.77;7.50;;;;;;;14.33;100.00;102415.00;5092613;28;20032;-59
2023/06/01 07:45:45;;;;;;;11.32;7.43;;;;;;;14.72;100.00;102423.78;5093253;28;20115;-59
2023/06/01 07:48:10;;;;;;;8.95;7.93;;;;;;;14.96;100.00;102423.19;5092687;28;20111;-59
2023/06/01 07:50:36;;;;;;;10.57;6.35;;;;;;;14.70;100.00;102433.56;5092718;28;20040;-59
2023/06/01 07:53:02;;;;;;;9.45;7.05;;;;;;;14.72;100.00;102429.09;5092488;28;20067;-58
2023/06/01 07:55:27;;;;;;;10.95;7.32;;;;;;;14.36;100.00;102300.16;5092454;28;20491;-60
2023/06/01 07:57:53;;;;;;;8.93;7.25;;;;;;;14.53;100.00;102358.91;5092332;28;20193;-59
2023/06/01 08:00:18;;;;;;;13.10;7.75;;;;;;;14.23;100.00;102333.13;5092771;28;20032;-59
2023/06/01 08:02:44;;;;;;;13.20;7.85;;;;;;;14.80;100.00;102434.22;5074486;28;20368;-60
2023/06/01 08:05:11;;;;;;;13.82;7.18;;;;;;;14.97;100.00;102427.56;5092599;28;20157;-59
2023/06/01 08:07:37;;;;;;;10.75;7.80;;;;;;;14.86;100.00;102431.38;5092564;28;20062;-59
2023/06/01 08:10:07;;;;;;;9.95;7.00;;;;;;;14.71;100.00;102424.69;5092629;28;20039;-59
2023/06/01 08:12:33;;;;;;;18.92;7.55;;;;;;;15.14;100.00;102403.28;5091608;28;20051;-59
2023/06/01 08:14:58;;;;;;;8.65;6.18;;;;;;;15.36;100.00;102335.44;5074414;28;20036;-59
2023/06/01 08:17:24;;;;;;;10.50;6.70;;;;;;;15.54;100.00;102388.03;5074151;28;20495;-59
2023/06/01 08:19:49;;;;;;;8.20;6.60;;;;;;;15.85;100.00;102427.81;5091893;28;20032;-60
2023/06/01 08:22:16;;;;;;;8.15;6.28;;;;;;;15.42;100.00;102411.34;5092633;28;20035;-59
2023/06/01 08:24:42;;;;;;;8.82;6.38;;;;;;;15.86;100.00;102418.97;5074400;28;20032;-59
2023/06/01 08:27:18;;;;;;;9.85;7.05;;;;;;;15.18;100.00;102423.47;5092274;28;20058;-58
2023/06/01 08:29:45;;;;;;;10.82;6.97;;;;;;;14.86;100.00;102360.69;5092058;28;20028;-59
2023/06/01 08:32:11;;;;;;;8.02;6.40;;;;;;;14.74;100.00;102317.75;5091082;28;20030;-59
2023/06/01 08:34:36;;;;;;;7.15;5.95;;;;;;;15.68;100.00;102412.41;5074266;28;20032;-59
2023/06/01 08:37:02;;;;;;;8.85;6.78;;;;;;;14.72;100.00;102240.03;5090737;28;20024;-59
2023/06/01 08:39:27;;;;;;;8.70;6.75;;;;;;;15.41;100.00;102348.59;5092116;28;20032;-59
2023/06/01 08:42:05;;;;;;;8.05;5.78;;;;;;;15.67;100.00;102343.44;5092332;28;20028;-59
2023/06/01 08:44:35;;;;;;;8.18;6.10;;;;;;;16.68;100.00;102414.66;5092134;28;20032;-59
2023/06/01 08:47:02;;;;;;;8.88;5.53;;;;;;;16.69;100.00;102426.16;5091876;28;20444;-59
2023/06/01 08:49:29;;;;;;;6.50;5.13;;;;;;;17.25;100.00;102427.75;5073762;28;20399;-60
2023/06/01 08:51:55;;;;;;;9.63;6.15;;;;;;;16.58;100.00;102420.31;5091671;28;20032;-59
2023/06/01 08:54:20;;;;;;;9.15;5.80;;;;;;;16.02;100.00;102422.91;5090955;28;20040;-60
2023/06/01 08:56:46;;;;;;;9.80;6.00;;;;;;;16.54;100.00;102416.00;5073617;28;20458;-60
2023/06/01 08:59:13;;;;;;;12.18;5.47;;;;;;;16.47;100.00;102350.63;5091645;28;20048;-60
2023/06/01 09:01:39;;;;;;;5.72;5.05;;;;;;;17.07;100.00;102412.44;5090776;28;20467;-59
2023/06/01 09:04:04;;;;;;;9.18;6.00;;;;;;;17.63;100.00;102417.59;5073878;28;20066;-58
2023/06/01 09:06:29;;;;;;;11.07;6.30;;;;;;;17.62;100.00;102414.03;5092206;28;20036;-59
2023/06/01 09:08:55;;;;;;;10.02;5.88;;;;;;;17.98;100.00;102414.44;5091897;28;20039;-59
2023/06/01 09:11:20;;;;;;;6.75;5.30;;;;;;;18.17;100.00;102356.84;5091770;28;20395;-59
2023/06/01 09:13:46;;;;;;;7.97;5.90;;;;;;;18.41;100.00;102377.19;5073300;28;20436;-59
2023/06/01 09:16:11;;;;;;;8.38;5.80;;;;;;;18.65;100.00;102353.97;5091881;28;20047;-59
2023/06/01 09:18:53;;;;;;;9.98;5.75;;;;;;;19.02;100.00;102420.88;5057397;28;20040;-59
2023/06/01 09:21:18;;;;;;;8.82;4.85;;;;;;;18.59;100.00;102428.06;5074085;28;20031;-59
2023/06/01 09:23:44;;;;;;;9.20;5.55;;;;;;;18.54;100.00;102365.13;5094326;28;20032;-59
2023/06/01 09:26:11;;;;;;;7.55;5.30;;;;;;;18.57;100.00;102363.25;5095717;28;20067;-59
2023/06/01 09:28:54;;;;;;;10.35;5.70;;;;;;;18.96;100.00;102402.47;5095549;28;20085;-59
2023/06/01 09:31:39;;;;;;;7.93;5.32;;;;;;;19.45;100.00;102411.03;5095662;28;20032;-60
2023/06/01 09:34:05;;;;;;;7.60;4.95;;;;;;;19.71;100.00;102423.22;5093734;28;20032;-59
2023/06/01 09:36:32;;;;;;;6.72;4.78;;;;;;;19.66;100.00;102426.09;5095511;28;20035;-59
2023/06/01 09:39:05;;;;;;;6.90;5.00;;;;;;;19.70;100.00;102411.69;5095389;28;20035;-59
2023/06/01 09:41:49;;;;;;;6.53;4.10;;;;;;;20.07;100.00;102417.06;5095478;28;20038;-60
2023/06/01 09:44:31;;;;;;;9.82;5.45;;;;;;;20.16;100.00;102371.19;5094883;28;20032;-59
2023/06/01 09:46:58;;;;;;;7.50;5.10;;;;;;;20.11;100.00;102415.13;5076730;28;20077;-60
2023/06/01 09:49:43;;;;;;;9.80;4.95;;;;;;;19.89;100.00;102428.59;5076382;28;20512;-59
2023/06/01 09:52:16;;;;;;;6.00;4.50;;;;;;;19.98;100.00;102417.47;5077190;28;20039;-59
2023/06/01 09:54:50;;;;;;;8.05;5.47;;;;;;;19.52;100.00;102405.38;5095130;28;20394;-59
2023/06/01 09:57:24;;;;;;;6.65;4.43;;;;;;;19.29;100.00;102415.28;5094995;28;20038;-59
2023/06/01 09:59:49;;;;;;;8.57;5.20;;;;;;;19.37;100.00;102333.03;5090788;28;20046;-59
2023/06/01 10:02:19;;;;;;;6.65;5.07;;;;;;;19.57;100.00;102338.38;5094878;28;20035;-58
2023/06/01 10:04:48;;;;;;;6.80;4.65;;;;;;;19.76;100.00;102344.56;5094891;28;20032;-59
2023/06/01 10:07:13;;;;;;;8.02;4.88;;;;;;;19.30;100.00;102340.47;5094645;28;20544;-59
2023/06/01 10:09:41;;;;;;;9.65;4.30;;;;;;;20.33;100.00;102406.94;5094887;28;20032;-58
2023/06/01 10:12:07;;;;;;;7.72;4.25;;;;;;;20.63;100.00;102394.75;5094700;28;20506;-58
2023/06/01 10:14:33;;;;;;;5.97;4.90;;;;;;;20.77;100.00;102400.28;5093250;28;20024;-59
2023/06/01 10:16:58;;;;;;;9.07;4.55;;;;;;;20.67;100.00;102389.16;5094495;28;20494;-59
2023/06/01 10:19:24;;;;;;;7.53;4.85;;;;;;;20.72;100.00;102408.53;5094850;28;20032;-59
2023/06/01 10:21:50;;;;;;;6.20;4.82;;;;;;;20.95;100.00;102361.88;5094689;28;20036;-60
2023/06/01 10:24:18;;;;;;;9.02;4.85;;;;;;;21.20;100.00;102407.88;5094377;28;20044;-60
2023/06/01 10:27:20;;;;;;;6.75;4.70;;;;;;;21.85;100.00;102401.69;5094208;28;20036;-60
2023/06/01 10:29:46;;;;;;;8.63;5.28;;;;;;;21.99;100.00;102395.59;4976243;28;20465;-59
2023/06/01 10:32:36;;;;;;;6.55;4.25;;;;;;;22.67;100.00;102401.56;5073793;28;20048;-57
2023/06/01 10:35:02;;;;;;;6.80;4.50;;;;;;;22.20;100.00;102378.31;5093337;28;20028;-55
2023/06/01 10:37:27;;;;;;;7.32;5.30;;;;;;;21.24;100.00;102334.47;5094123;28;20483;-59
2023/06/01 10:39:52;;;;;;;5.63;4.88;;;;;;;21.13;100.00;102397.59;5076187;28;20499;-55
2023/06/01 10:42:18;;;;;;;5.25;4.53;;;;;;;20.67;100.00;102399.88;5093098;28;20039;-57
2023/06/01 10:44:44;;;;;;;7.07;4.90;;;;;;;21.08;100.00;102410.31;5094202;28;20086;-58
2023/06/01 10:47:12;;;;;;;6.47;4.90;;;;;;;20.87;100.00;102390.00;5092423;28;20043;-57
2023/06/01 10:49:47;;;;;;;8.02;4.90;;;;;;;21.71;100.00;102382.81;5092876;28;20036;-55
2023/06/01 10:52:33;;;;;;;7.30;4.53;;;;;;;22.69;100.00;102380.88;5092785;28;20077;-57
2023/06/01 10:55:10;;;;;;;6.00;3.90;;;;;;;22.29;100.00;102390.34;5093301;28;20040;-58
2023/06/01 10:57:37;;;;;;;8.07;3.95;;;;;;;21.77;100.00;102342.25;5075676;28;20122;-54
2023/06/01 11:00:09;;;;;;;6.47;3.88;;;;;;;22.31;100.00;102383.06;5093585;28;20502;-57
2023/06/01 11:02:34;;;;;;;8.98;4.80;;;;;;;21.98;100.00;102375.09;5093581;28;20077;-56
2023/06/01 11:05:33;;;;;;;7.15;4.10;;;;;;;22.24;100.00;102376.31;5094025;28;20028;-57
2023/06/01 11:07:59;;;;;;;7.82;4.63;;;;;;;22.24;100.00;102379.84;5093580;28;20145;-56
2023/06/01 11:10:52;;;;;;;9.20;4.20;;;;;;;21.36;100.00;102380.31;5093508;28;20380;-59